Relevés horaires Beauvechain (Belgique)


Relevés horaires à Beauvechain - Jeudi 19 Juill. 2018
Heure UTC1 Température [°C] Vent [km/h] Hum. [%] Pres.4 [hPa] Visi. [Km] Nébu. [octa] Préc.5 [mm] Cond.
2m. Res. Ros. Dir.2 Vit. Moy. Raf.3
23:00 17.8 17.8 7.1 NNO 0.0 -- 1.9 49 1017.3(0.0/3h) 20 -- -- --
22:00 18.4 18.4 7.4 NNO 1.9 -- 5.6 49 1017.5(0.4/3h) 20 -- -- --
21:00 18.6 18.6 7.8 N 3.7 -- 11.1 49 1017.3(0.5/3h) 20 -- -- --
20:00 21.1 21.1 8.3 N 7.4 -- 11.1 44 1017.2(0.5/3h) 20 -- -- --
19:00 23.0 23.0 11.0 N 5.6 -- 9.3 47 1016.7(-0.1/3h) 20 -- -- --
18:00 25.3 25.3 9.3 NNO 3.7 -- 9.3 36 1016.5(-0.6/3h) 19 -- -- --
17:00 25.7 25.7 9.0 NO 5.6 -- 9.3 35 1016.3(-1.2/3h) 20 -- -- --
16:00 26.2 26.2 8.9 NNO 3.7 -- 9.3 34 1016.7(-0.9/3h) 20 3/8 -- --
15:00 26.9 26.9 8.7 NNO 5.6 -- 9.3 32 1017.1(-0.8/3h) 20 4/8 -- --
14:00 25.6 25.6 8.8 N 3.7 -- 9.3 35 1017.7(-0.6/3h) 20 6/8 -- --
13:00 25.9 25.9 8.8 NE 3.7 -- 9.3 34 1017.7(-0.7/3h) 20 6/8 -- --
12:00 25.1 25.1 9.6 NNO 1.9 -- 9.3 38 1018(-0.8/3h) 20 4/8 -- --
11:00 24.8 24.8 10.3 N 3.7 -- 9.3 40 1018.3(-0.6/3h) 20 3/8 -- --
10:00 24.1 24.1 12.1 N 3.7 -- 9.3 47 1018.6(-0.3/3h) 20 4/8 -- --
09:00 22.3 22.3 11.9 N 3.7 -- 9.3 52 1019(0.0/3h) 20 2/8 -- --
08:00 20.5 20.5 12.8 N 3.7 -- 7.4 61 1019.2(0.2/3h) 20 1/8 -- --
07:00 18.6 18.6 12.4 NNO 1.9 -- 7.4 67 1019.4(0.3/3h) 20 1/8 -- --
06:00 16.2 16.2 11.5 NNO 1.9 -- 3.7 74 1019.3(0.3/3h) 20 1/8 -- --
05:00 13.8 13.8 10.6 NNO 1.9 -- 3.7 81 1019.3(0.0/3h) 20 1/8 -- --
04:00 12.2 12.2 9.8 NNO 1.9 -- 1.9 85 1019.2(-0.5/3h) 20 1/8 -- --
03:00 16.2 16.2 10.3 NNO 0.0 -- 1.9 68 1019.1(-0.5/3h) 20 -- -- --
02:00 15.5 15.5 10.2 NNO 1.9 -- 1.9 71 1019.2(-0.4/3h) 20 -- -- --
01:00 16.8 16.8 10.1 NNO 1.9 -- 0.0 65 1019.5(0.0/3h) 20 -- -- --
00:00 17.1 17.1 10.4 NNO 1.9 -- 11.1 65 1019.6(0.3/3h) 20 -- -- --

1 Coordinated Universal Time. Actuellement il est 16:00 locale et 15:00 UTC.

2 Le vent souffle depuis la direction indiquée vers la direction oposée.

3 Les rafales max. sont disponible 40 min après l'heure du relevé.

4 Pour les stations d'altitude (plus de 600m) le géopotentiel du niveau le plus proche de la pression obligatoire est indiqué.

5 Les stations disposant d'un diffuseur peuvent indiquer "trace". Cela signifie que des précipitations ont touchés le sol mais que la quantité est inférieure à 0.1 mm.

Récapitulatif de la journée
Température [°C] Vent [km/h] Ensoleillement4 [h] Precipitations totale5 [mm] Pression [Hpa]
Min1 Max.2 Moy.3 Max. Min Max.
11.8 27.1 0 11.1 0 h 0 min 0 1016.3 1019.6

1 Température minimale relevée entre 18:00 UTC la veille et 18:00 UTC le jour donné.

2 Température maximale relevée entre 06:00 UTC le jour donné et 06:00 UTC le lendemain.

3 Vent moyen de la journée basé sur les relevés horaires.

4 Ensoleillement en heures relevé entre 06:00 UTC la veille et 06:00 UTC le jour donné.

5 Précipitations totales tombées entre 06:00 UTC la jour donné et 06:00 UTC le lendemain.

Graphiques horaires